Time;durP1;ratioP1;P1;durP2;ratioP2;P2;SDS_P1;SDS_P2;PMS_P1;PMS_P2;Temp;Humidity;BMP_temperature;BMP_pressure;BME280_temperature;BME280_humidity;BME280_pressure;Samples;Min_cycle;Max_cycle;Signal;HPM_P1;HPM_P2
2023/08/23 00:01:33;;;;;;;11.18;4.47;;;;;;;-144.73;100.00;54300.97;5001801;28;20030;-71
2023/08/23 00:03:59;;;;;;;11.73;5.28;;;;;;;-144.73;100.00;54300.97;5000967;28;20030;-72
2023/08/23 00:06:24;;;;;;;10.45;5.13;;;;;;;-144.73;100.00;54321.50;4991921;28;20035;-71
2023/08/23 00:08:49;;;;;;;10.07;4.93;;;;;;;-144.73;100.00;54313.28;5001878;28;20023;-72
2023/08/23 00:11:15;;;;;;;10.38;4.32;;;;;;;-144.73;100.00;54317.38;5003587;28;20092;-72
2023/08/23 00:13:40;;;;;;;11.35;4.78;;;;;;;-144.73;100.00;54276.34;5004566;28;20019;-72
2023/08/23 00:16:05;;;;;;;12.93;4.82;;;;;;;-144.73;100.00;54325.59;5000406;28;20038;-72
2023/08/23 00:18:31;;;;;;;7.95;4.65;;;;;;;-144.73;100.00;54325.59;5000909;28;20076;-72
2023/08/23 00:20:56;;;;;;;7.95;4.45;;;;;;;-144.73;100.00;54317.38;5000955;28;20034;-72
2023/08/23 00:23:21;;;;;;;12.18;4.55;;;;;;;-144.73;100.00;54348.19;5001536;28;20093;-72
2023/08/23 00:25:47;;;;;;;16.55;5.18;;;;;;;-144.73;100.00;54300.97;4999328;28;20038;-72
2023/08/23 00:28:15;;;;;;;10.75;5.40;;;;;;;-144.73;100.00;54276.34;4999221;28;20034;-72
2023/08/23 00:30:51;;;;;;;11.57;5.72;;;;;;;-144.73;100.00;54358.44;4998187;28;20034;-72
2023/08/23 00:33:17;;;;;;;22.10;5.03;;;;;;;-144.73;100.00;54350.22;4999857;28;20022;-71
2023/08/23 00:35:42;;;;;;;8.77;4.55;;;;;;;-144.73;100.00;54309.19;5001222;28;20079;-74
2023/08/23 00:38:07;;;;;;;13.52;5.30;;;;;;;-144.73;100.00;54383.06;4996100;28;20037;-72
2023/08/23 00:40:33;;;;;;;15.25;6.43;;;;;;;-144.73;100.00;54313.28;4999352;28;20409;-72
2023/08/23 00:42:58;;;;;;;10.85;6.43;;;;;;;-144.73;100.00;54315.34;5001200;28;20034;-72
2023/08/23 00:45:23;;;;;;;13.73;5.90;;;;;;;-144.73;100.00;54309.19;5003310;28;20033;-72
2023/08/23 00:47:49;;;;;;;12.85;6.22;;;;;;;-144.73;100.00;54329.72;5002733;28;20030;-72
2023/08/23 00:50:15;;;;;;;14.20;5.80;;;;;;;-144.73;100.00;54317.38;5001658;28;20034;-72
2023/08/23 00:52:41;;;;;;;9.90;5.85;;;;;;;-144.73;100.00;54354.34;4984938;28;20043;-74
2023/08/23 00:55:07;;;;;;;17.98;8.18;;;;;;;-144.73;100.00;54321.50;4991079;28;20037;-74
2023/08/23 00:57:32;;;;;;;11.88;6.60;;;;;;;-144.73;100.00;54337.91;4993154;28;20102;-74
2023/08/23 00:59:58;;;;;;;12.73;6.15;;;;;;;-144.73;100.00;54313.28;4993028;28;20126;-74
2023/08/23 01:02:24;;;;;;;13.82;6.43;;;;;;;-144.73;100.00;54313.28;4993048;28;20022;-74
2023/08/23 01:04:49;;;;;;;13.88;5.50;;;;;;;-144.73;100.00;54317.38;4992757;28;20043;-74
2023/08/23 01:07:17;;;;;;;12.95;6.10;;;;;;;-144.73;100.00;54358.44;4993039;28;20030;-74
2023/08/23 01:09:50;;;;;;;11.20;5.93;;;;;;;-144.73;100.00;54317.38;4986167;28;20057;-74
2023/08/23 01:12:44;;;;;;;19.48;6.60;;;;;;;-144.73;100.00;54327.66;5008431;28;20053;-75
2023/08/23 01:15:12;;;;;;;15.70;6.15;;;;;;;-144.73;100.00;54354.34;4997258;28;20061;-75
2023/08/23 01:17:41;;;;;;;13.48;6.63;;;;;;;-144.73;100.00;54317.38;5001022;28;20113;-74
2023/08/23 01:20:09;;;;;;;22.13;7.82;;;;;;;-144.73;100.00;54342.03;4992134;28;20161;-74
2023/08/23 01:22:38;;;;;;;16.17;7.65;;;;;;;-144.73;100.00;54321.50;5001110;28;20057;-75
2023/08/23 01:25:05;;;;;;;18.20;8.98;;;;;;;-144.73;100.00;54342.03;4995569;28;20049;-75
2023/08/23 01:27:32;;;;;;;29.38;7.75;;;;;;;-144.73;100.00;54366.66;5000290;28;20101;-74
2023/08/23 01:29:58;;;;;;;15.15;8.80;;;;;;;-144.73;100.00;54288.66;5008624;28;20057;-74
2023/08/23 01:32:51;;;;;;;25.20;10.73;;;;;;;-144.73;100.00;54333.81;4996582;28;20020;-75
2023/08/23 01:35:27;;;;;;;33.22;12.52;;;;;;;-144.73;100.00;54321.50;4993416;28;20033;-75
2023/08/23 01:37:53;;;;;;;30.08;10.82;;;;;;;-144.73;100.00;54358.44;5000404;28;20026;-74
2023/08/23 01:40:19;;;;;;;30.40;9.73;;;;;;;-144.73;100.00;54337.91;4999233;28;20081;-75
2023/08/23 01:42:46;;;;;;;19.48;9.57;;;;;;;-144.73;100.00;54317.38;5001222;28;20057;-75
2023/08/23 01:45:11;;;;;;;18.92;10.45;;;;;;;-144.73;100.00;54350.22;5004059;28;20054;-75
2023/08/23 01:47:36;;;;;;;25.10;11.85;;;;;;;-144.73;100.00;54292.75;5002859;28;20065;-75
2023/08/23 01:50:03;;;;;;;21.35;10.80;;;;;;;-144.73;100.00;54342.03;5004931;28;20072;-74
2023/08/23 01:52:28;;;;;;;23.20;11.38;;;;;;;-144.73;100.00;54323.53;5006012;28;20424;-74
2023/08/23 01:54:54;;;;;;;20.00;10.90;;;;;;;-144.73;100.00;54342.03;5005071;28;20057;-75
2023/08/23 01:57:19;;;;;;;24.10;9.98;;;;;;;-144.73;100.00;54325.59;4998272;28;20034;-74
2023/08/23 01:59:46;;;;;;;27.98;11.10;;;;;;;-144.73;100.00;54346.13;4997082;28;20117;-74
2023/08/23 02:02:11;;;;;;;21.42;11.23;;;;;;;-144.73;100.00;54337.91;5010160;28;20058;-75
2023/08/23 02:04:36;;;;;;;28.98;10.65;;;;;;;-144.73;100.00;54300.97;5003586;28;20058;-74
2023/08/23 02:07:02;;;;;;;24.00;12.85;;;;;;;-144.73;100.00;54321.50;4994552;28;20029;-75
2023/08/23 02:09:28;;;;;;;20.67;10.88;;;;;;;-144.73;100.00;54305.06;5003583;28;20048;-75
2023/08/23 02:11:53;;;;;;;16.15;9.35;;;;;;;-144.73;100.00;54313.28;4994576;28;20107;-75
2023/08/23 02:14:18;;;;;;;27.58;10.57;;;;;;;-144.73;100.00;54329.72;5002465;28;20416;-74
2023/08/23 02:16:44;;;;;;;17.92;8.98;;;;;;;-144.73;100.00;54354.34;5002948;28;20038;-75
2023/08/23 02:19:09;;;;;;;20.42;10.13;;;;;;;-144.73;100.00;54350.22;5003364;28;20057;-75
2023/08/23 02:21:35;;;;;;;18.23;9.88;;;;;;;-144.73;100.00;54366.66;4994042;28;20134;-74
2023/08/23 02:24:00;;;;;;;26.60;12.30;;;;;;;-144.73;100.00;54325.59;4997686;28;20029;-74
2023/08/23 02:26:27;;;;;;;22.15;12.70;;;;;;;-144.73;100.00;54313.28;5003292;28;20035;-74
2023/08/23 02:28:52;;;;;;;26.02;11.68;;;;;;;-144.73;100.00;54366.66;5001944;28;20375;-74
2023/08/23 02:31:17;;;;;;;23.40;11.60;;;;;;;-144.73;100.00;54348.19;4991796;28;20044;-75
2023/08/23 02:33:43;;;;;;;31.13;13.95;;;;;;;-144.73;100.00;54333.81;5000285;28;20026;-74
2023/08/23 02:36:08;;;;;;;25.35;12.48;;;;;;;-144.73;100.00;54354.34;4995943;28;20053;-74
2023/08/23 02:38:33;;;;;;;26.10;13.70;;;;;;;-144.73;100.00;54317.38;4997940;28;20018;-74
2023/08/23 02:40:59;;;;;;;16.98;10.00;;;;;;;-144.73;100.00;54350.22;4998276;28;20060;-74
2023/08/23 02:43:24;;;;;;;16.77;9.55;;;;;;;-144.73;100.00;54309.19;4999977;28;20050;-75
2023/08/23 02:45:50;;;;;;;16.27;8.85;;;;;;;-144.73;100.00;54366.66;4998664;28;20034;-75
2023/08/23 02:48:15;;;;;;;17.30;8.73;;;;;;;-144.73;100.00;54354.34;4998990;28;20086;-74
2023/08/23 02:50:42;;;;;;;19.48;9.38;;;;;;;-144.73;100.00;54350.22;5005304;28;20030;-74
2023/08/23 02:53:08;;;;;;;26.13;11.95;;;;;;;-144.73;100.00;54354.34;5006451;28;20060;-74
2023/08/23 02:55:37;;;;;;;22.35;11.73;;;;;;;-144.73;100.00;54358.44;4994460;28;20050;-74
2023/08/23 02:58:03;;;;;;;27.15;11.38;;;;;;;-144.73;100.00;54329.72;5004398;28;20029;-74
2023/08/23 03:00:28;;;;;;;25.02;10.07;;;;;;;-144.73;100.00;54383.06;4994188;28;20023;-75
2023/08/23 03:02:54;;;;;;;21.88;12.23;;;;;;;-144.73;100.00;54329.72;4997911;28;20026;-74
2023/08/23 03:05:19;;;;;;;21.38;11.95;;;;;;;-144.73;100.00;54321.50;4993317;28;20043;-75
2023/08/23 03:07:44;;;;;;;23.58;10.93;;;;;;;-144.73;100.00;54358.44;5006822;28;20026;-74
2023/08/23 03:10:10;;;;;;;20.50;9.35;;;;;;;-144.73;100.00;54313.28;4997754;28;20065;-75
2023/08/23 03:12:35;;;;;;;23.63;10.93;;;;;;;-144.73;100.00;54342.03;4995000;28;20010;-75
2023/08/23 03:15:01;;;;;;;23.02;10.60;;;;;;;-144.73;100.00;54358.44;5005190;28;20037;-75
2023/08/23 03:17:26;;;;;;;20.05;10.90;;;;;;;-144.73;100.00;54329.72;4998058;28;20054;-75
2023/08/23 03:19:51;;;;;;;22.67;11.68;;;;;;;-144.73;100.00;54329.72;4998980;28;20042;-74
2023/08/23 03:22:16;;;;;;;27.27;13.80;;;;;;;-144.73;100.00;54337.91;4996604;28;20030;-75
2023/08/23 03:24:42;;;;;;;18.70;9.25;;;;;;;-144.73;100.00;54370.75;4992635;28;20042;-75
2023/08/23 03:27:07;;;;;;;19.20;8.40;;;;;;;-144.73;100.00;54360.50;4999765;28;20022;-75
2023/08/23 03:29:33;;;;;;;22.25;10.18;;;;;;;-144.73;100.00;54362.53;4993624;28;20043;-75
2023/08/23 03:31:58;;;;;;;22.52;9.90;;;;;;;-144.73;100.00;54354.34;4988600;28;20056;-75
2023/08/23 03:34:23;;;;;;;19.80;9.18;;;;;;;-144.73;100.00;54387.19;4985841;28;20031;-75
2023/08/23 03:36:48;;;;;;;24.13;10.40;;;;;;;-144.73;100.00;54333.81;4988070;28;20149;-75
2023/08/23 03:39:14;;;;;;;21.00;10.48;;;;;;;-144.73;100.00;54372.81;4977200;28;20029;-75
2023/08/23 03:41:39;;;;;;;21.23;10.35;;;;;;;-144.73;100.00;54321.50;4994818;28;20026;-74
2023/08/23 03:44:05;;;;;;;23.23;11.63;;;;;;;-144.73;100.00;54366.66;4993954;28;20049;-75
2023/08/23 03:46:30;;;;;;;23.65;12.52;;;;;;;-144.73;100.00;54276.34;5001996;28;20073;-75
2023/08/23 03:48:56;;;;;;;33.03;15.98;;;;;;;-144.73;100.00;54350.22;5001893;28;20486;-75
2023/08/23 03:51:21;;;;;;;27.42;15.55;;;;;;;-144.73;100.00;54358.44;4990559;28;20553;-75
2023/08/23 03:53:47;;;;;;;34.47;16.88;;;;;;;-144.73;100.00;54366.66;4990684;28;20026;-75
2023/08/23 03:56:12;;;;;;;35.10;17.13;;;;;;;-144.73;100.00;54313.28;4985367;28;20034;-75
2023/08/23 03:58:37;;;;;;;30.95;16.13;;;;;;;-144.73;100.00;54354.34;4989272;28;20473;-74
2023/08/23 04:01:03;;;;;;;34.60;13.52;;;;;;;-144.73;100.00;54337.91;4999251;28;20034;-74
2023/08/23 04:03:28;;;;;;;30.83;15.68;;;;;;;-144.73;100.00;54317.38;5006024;28;20026;-75
2023/08/23 04:05:53;;;;;;;30.85;14.38;;;;;;;-144.73;100.00;54323.53;5007732;28;20061;-75
2023/08/23 04:08:19;;;;;;;34.90;16.25;;;;;;;-144.73;100.00;54352.28;5008991;28;20026;-76
2023/08/23 04:10:48;;;;;;;35.97;15.13;;;;;;;-144.73;100.00;54339.97;4994051;28;20030;-75
2023/08/23 04:13:14;;;;;;;51.88;18.48;;;;;;;-144.73;100.00;54346.13;4998053;28;20020;-75
2023/08/23 04:15:44;;;;;;;40.08;17.52;;;;;;;-144.73;100.00;54391.28;4997661;28;20057;-75
2023/08/23 04:18:09;;;;;;;34.90;15.43;;;;;;;-144.73;100.00;54346.13;5002043;28;20217;-75
2023/08/23 04:20:34;;;;;;;38.50;17.08;;;;;;;-144.73;100.00;54362.53;4992052;28;20072;-75
2023/08/23 04:23:00;;;;;;;36.78;14.77;;;;;;;-144.73;100.00;54350.22;5002963;28;20021;-75
2023/08/23 04:25:25;;;;;;;36.22;16.95;;;;;;;-144.73;100.00;54342.03;4990300;28;20113;-75
2023/08/23 04:27:51;;;;;;;34.47;17.42;;;;;;;-144.73;100.00;54329.72;4996412;28;20157;-75
2023/08/23 04:30:16;;;;;;;35.05;17.27;;;;;;;-144.73;100.00;54387.19;4989046;28;20165;-75
2023/08/23 04:32:42;;;;;;;39.85;18.00;;;;;;;-144.73;100.00;54362.53;4995287;28;20022;-75
2023/08/23 04:35:08;;;;;;;34.05;16.95;;;;;;;-144.73;100.00;54329.72;5007390;28;20042;-75
2023/08/23 04:37:33;;;;;;;34.08;14.40;;;;;;;-144.73;100.00;54348.19;5005850;28;20089;-75
2023/08/23 04:39:58;;;;;;;29.23;13.52;;;;;;;-144.73;100.00;54333.81;4996800;28;20031;-75
2023/08/23 04:42:24;;;;;;;33.22;15.25;;;;;;;-144.73;100.00;54358.44;5000567;28;20029;-75
2023/08/23 04:44:49;;;;;;;25.65;13.45;;;;;;;-144.73;100.00;54370.75;5000702;28;20065;-76
2023/08/23 04:47:14;;;;;;;35.72;14.18;;;;;;;-144.73;100.00;54325.59;4998256;28;20014;-75
2023/08/23 04:49:40;;;;;;;31.25;14.07;;;;;;;-144.73;100.00;54366.66;4996312;28;20058;-75
2023/08/23 04:52:05;;;;;;;33.90;14.93;;;;;;;-144.73;100.00;54387.19;4995402;28;20015;-75
2023/08/23 04:54:31;;;;;;;34.08;15.63;;;;;;;-144.73;100.00;54368.69;5005380;28;20038;-76
2023/08/23 04:56:56;;;;;;;27.83;12.65;;;;;;;-144.73;100.00;54378.97;4997978;28;20112;-75
2023/08/23 04:59:21;;;;;;;33.92;13.25;;;;;;;-144.73;100.00;54346.13;5001898;28;20084;-75
2023/08/23 05:01:47;;;;;;;32.45;17.25;;;;;;;-144.73;100.00;54346.13;4997926;28;20053;-75
2023/08/23 05:04:12;;;;;;;34.90;13.98;;;;;;;-144.73;100.00;54333.81;5007036;28;20052;-75
2023/08/23 05:06:37;;;;;;;25.67;12.05;;;;;;;-144.73;100.00;54350.22;4991453;28;20033;-75
2023/08/23 05:09:06;;;;;;;28.25;12.43;;;;;;;-144.73;100.00;54378.97;4991582;28;20026;-75
2023/08/23 05:11:31;;;;;;;27.05;13.23;;;;;;;-144.73;100.00;54391.28;5006367;28;20457;-75
2023/08/23 05:13:57;;;;;;;31.90;12.30;;;;;;;-144.73;100.00;54385.13;5001620;28;20049;-75
2023/08/23 05:16:22;;;;;;;29.35;13.15;;;;;;;-144.73;100.00;54342.03;4990547;28;20034;-75
2023/08/23 05:18:47;;;;;;;29.17;11.45;;;;;;;-144.73;100.00;54358.44;5008862;28;20022;-75
2023/08/23 05:21:14;;;;;;;27.83;12.23;;;;;;;-144.73;100.00;54366.66;4995702;28;20034;-75
2023/08/23 05:23:39;;;;;;;26.55;10.98;;;;;;;-144.73;100.00;54378.97;5007946;28;20034;-76
2023/08/23 05:26:05;;;;;;;34.78;12.90;;;;;;;-144.73;100.00;54370.75;5000729;28;20034;-75
2023/08/23 05:28:31;;;;;;;21.42;10.85;;;;;;;-144.73;100.00;54350.22;4997092;28;20109;-75
2023/08/23 05:30:57;;;;;;;30.42;12.07;;;;;;;-144.73;100.00;54383.06;4998158;28;20050;-76
2023/08/23 05:33:22;;;;;;;28.80;10.32;;;;;;;-144.73;100.00;54342.03;5005524;28;20026;-76
2023/08/23 05:35:47;;;;;;;24.38;10.38;;;;;;;-144.73;100.00;54358.44;5002489;28;20037;-76
2023/08/23 05:38:13;;;;;;;19.38;9.35;;;;;;;-144.73;100.00;54362.53;5005665;28;20029;-76
2023/08/23 05:40:39;;;;;;;21.85;9.23;;;;;;;-144.73;100.00;54350.22;5005896;28;20053;-76
2023/08/23 05:43:05;;;;;;;23.50;8.40;;;;;;;-144.73;100.00;54407.69;4992723;28;20026;-76
2023/08/23 05:45:30;;;;;;;17.02;8.10;;;;;;;-144.73;100.00;54378.97;5010854;28;20033;-76
2023/08/23 05:47:57;;;;;;;19.48;8.75;;;;;;;-144.73;100.00;54407.69;5004376;28;20022;-76
2023/08/23 05:50:23;;;;;;;30.35;8.35;;;;;;;-144.73;100.00;54358.44;4999726;28;20031;-74
2023/08/23 05:52:48;;;;;;;26.50;8.90;;;;;;;-144.73;100.00;54370.75;5009811;28;20033;-74
2023/08/23 05:55:14;;;;;;;24.17;7.75;;;;;;;-144.73;100.00;54350.22;4997633;28;20449;-74
2023/08/23 05:57:39;;;;;;;23.52;7.97;;;;;;;-144.73;100.00;54383.06;5000826;28;20041;-74
2023/08/23 06:00:05;;;;;;;20.33;7.80;;;;;;;-144.73;100.00;54368.69;5002124;28;20044;-74
2023/08/23 06:02:31;;;;;;;18.02;8.10;;;;;;;-144.73;100.00;54391.28;5001422;28;20080;-74
2023/08/23 06:04:58;;;;;;;15.38;7.70;;;;;;;-144.73;100.00;54374.84;5000515;28;20045;-76
2023/08/23 06:07:23;;;;;;;28.08;9.07;;;;;;;-144.73;100.00;54360.50;5007787;28;20022;-75
2023/08/23 06:09:49;;;;;;;19.27;8.23;;;;;;;-144.73;100.00;54407.69;4998883;28;20038;-75
2023/08/23 06:12:14;;;;;;;19.17;7.93;;;;;;;-144.73;100.00;54387.19;4999793;28;20026;-75
2023/08/23 06:14:39;;;;;;;20.55;8.07;;;;;;;-144.73;100.00;54354.34;4999250;28;20161;-75
2023/08/23 06:17:06;;;;;;;19.40;8.10;;;;;;;-144.73;100.00;54383.06;5000347;28;20405;-74
2023/08/23 06:19:32;;;;;;;19.65;8.10;;;;;;;-144.73;100.00;54374.84;4997831;28;20105;-74
2023/08/23 06:21:57;;;;;;;21.20;7.18;;;;;;;-144.73;100.00;54383.06;4992369;28;20169;-74
2023/08/23 06:24:22;;;;;;;14.88;6.55;;;;;;;-144.73;100.00;54370.75;5000599;28;20085;-77
2023/08/23 06:26:49;;;;;;;14.93;6.18;;;;;;;-144.73;100.00;54346.13;4997818;28;20038;-77
2023/08/23 06:29:15;;;;;;;22.50;5.50;;;;;;;-144.73;100.00;54354.34;4999367;28;20470;-74
2023/08/23 06:31:40;;;;;;;13.07;5.05;;;;;;;-144.73;100.00;54378.97;4997397;28;20033;-75
2023/08/23 06:34:06;;;;;;;10.43;4.60;;;;;;;-144.73;100.00;54381.00;4991220;28;20088;-75
2023/08/23 06:36:31;;;;;;;15.05;5.15;;;;;;;-144.73;100.00;54387.19;4987755;28;20023;-75
2023/08/23 06:38:56;;;;;;;22.67;5.03;;;;;;;-144.73;100.00;54387.19;4991814;28;20470;-75
2023/08/23 06:41:22;;;;;;;12.95;4.38;;;;;;;-144.73;100.00;54325.59;4991376;28;20053;-75
2023/08/23 06:43:47;;;;;;;11.27;4.95;;;;;;;-144.73;100.00;54391.28;4991300;28;20061;-75
2023/08/23 06:46:13;;;;;;;9.43;3.97;;;;;;;-144.73;100.00;54370.75;4989016;28;20051;-74
2023/08/23 06:48:38;;;;;;;16.23;4.47;;;;;;;-144.73;100.00;54366.66;4990654;28;20022;-75
2023/08/23 06:51:04;;;;;;;14.38;5.82;;;;;;;-144.73;100.00;54348.19;4990418;28;20113;-74
2023/08/23 06:53:31;;;;;;;12.88;5.38;;;;;;;-144.73;100.00;54362.53;5004428;28;20045;-75
2023/08/23 06:55:56;;;;;;;16.77;5.30;;;;;;;-144.73;100.00;54364.59;4993372;28;20049;-75
2023/08/23 06:58:22;;;;;;;12.95;4.30;;;;;;;-144.73;100.00;54370.75;4996824;28;20112;-75
2023/08/23 07:00:47;;;;;;;15.18;5.75;;;;;;;-144.73;100.00;54407.69;4995146;28;20030;-75
2023/08/23 07:03:13;;;;;;;16.27;5.68;;;;;;;-144.73;100.00;54366.66;4994292;28;20053;-75
2023/08/23 07:05:38;;;;;;;10.27;4.07;;;;;;;-144.73;100.00;54381.00;4997521;28;20041;-75
2023/08/23 07:08:04;;;;;;;11.82;4.90;;;;;;;-144.73;100.00;54358.44;4999578;28;20037;-75
2023/08/23 07:10:30;;;;;;;9.32;3.65;;;;;;;-144.73;100.00;54383.06;4998142;28;20034;-74
2023/08/23 07:12:56;;;;;;;12.95;4.13;;;;;;;-144.73;100.00;54378.97;4991853;28;20022;-75
2023/08/23 07:15:22;;;;;;;7.82;3.72;;;;;;;-144.73;100.00;54395.38;4993080;28;20063;-75
2023/08/23 07:17:48;;;;;;;11.20;3.42;;;;;;;-144.73;100.00;54362.53;4997713;28;20026;-75
2023/08/23 07:20:15;;;;;;;11.38;3.42;;;;;;;-144.73;100.00;54387.19;4984299;28;20046;-74
2023/08/23 07:22:41;;;;;;;12.73;3.90;;;;;;;-144.73;100.00;54370.75;4988336;28;20482;-74
2023/08/23 07:25:07;;;;;;;11.88;4.25;;;;;;;-144.73;100.00;54342.03;4987685;28;20030;-74
2023/08/23 07:27:32;;;;;;;15.98;3.85;;;;;;;-144.73;100.00;54325.59;4995825;28;20026;-74
2023/08/23 07:29:58;;;;;;;13.90;3.55;;;;;;;-144.73;100.00;54387.19;4992853;28;20057;-74
2023/08/23 07:32:24;;;;;;;16.50;3.70;;;;;;;-144.73;100.00;54378.97;4991750;28;20101;-73
2023/08/23 07:34:50;;;;;;;12.35;3.60;;;;;;;-144.73;100.00;54383.06;5003740;28;20468;-74
2023/08/23 07:37:17;;;;;;;6.78;3.22;;;;;;;-144.73;100.00;54327.66;4993446;28;20113;-74
2023/08/23 07:39:43;;;;;;;8.65;3.08;;;;;;;-144.73;100.00;54313.28;4993607;28;20456;-74
2023/08/23 07:42:08;;;;;;;12.20;2.72;;;;;;;-144.73;100.00;54366.66;4995550;28;20053;-74
2023/08/23 07:44:34;;;;;;;12.13;2.83;;;;;;;-144.73;100.00;54339.97;4987265;28;20512;-75
2023/08/23 07:47:00;;;;;;;14.88;3.42;;;;;;;-144.73;100.00;54358.44;4995610;28;20057;-74
2023/08/23 07:49:25;;;;;;;8.05;2.72;;;;;;;-144.73;100.00;54325.59;4996463;28;20069;-74
2023/08/23 07:51:50;;;;;;;9.77;2.53;;;;;;;-144.73;100.00;54309.19;4987329;28;20090;-74
2023/08/23 07:54:16;;;;;;;17.67;3.33;;;;;;;-144.73;100.00;54329.72;4979400;28;20037;-74
2023/08/23 07:56:41;;;;;;;14.73;2.60;;;;;;;-144.73;100.00;54368.69;4974817;28;20026;-74
2023/08/23 07:59:06;;;;;;;10.82;2.97;;;;;;;-144.73;100.00;54337.91;4975752;28;20026;-74
2023/08/23 08:01:32;;;;;;;12.52;3.40;;;;;;;-144.73;100.00;54303.03;4977557;28;20046;-74
2023/08/23 08:03:58;;;;;;;8.05;2.92;;;;;;;-144.73;100.00;54387.19;4977185;28;20026;-74
2023/08/23 08:06:24;;;;;;;9.75;3.30;;;;;;;-144.73;100.00;54370.75;4969958;28;20030;-74
2023/08/23 08:08:49;;;;;;;7.88;2.25;;;;;;;-144.73;100.00;54346.13;4973554;28;20030;-74
2023/08/23 08:11:15;;;;;;;11.48;3.03;;;;;;;-144.73;100.00;54333.81;4970873;28;20507;-75
2023/08/23 08:13:41;;;;;;;6.78;2.35;;;;;;;-144.73;100.00;54370.75;4973045;28;20676;-74
2023/08/23 08:16:11;;;;;;;7.85;2.70;;;;;;;-144.73;100.00;54346.13;4974750;28;20200;-74
2023/08/23 08:18:37;;;;;;;6.40;2.28;;;;;;;-144.73;100.00;54358.44;4972358;28;20037;-74
2023/08/23 08:21:03;;;;;;;10.82;2.78;;;;;;;-144.73;100.00;54284.56;4971807;28;20042;-74
2023/08/23 08:23:29;;;;;;;7.07;2.60;;;;;;;-144.73;100.00;54313.28;4974194;28;20022;-74
2023/08/23 08:25:55;;;;;;;9.82;2.50;;;;;;;-144.73;100.00;54309.19;4972917;28;20096;-74
2023/08/23 08:28:20;;;;;;;7.45;2.20;;;;;;;-144.73;100.00;54354.34;4974807;28;20030;-74
2023/08/23 08:30:46;;;;;;;6.22;2.42;;;;;;;-144.73;100.00;54337.91;4973569;28;20089;-73
2023/08/23 08:33:11;;;;;;;3.40;2.00;;;;;;;-144.73;100.00;54329.72;4973182;28;20054;-74
2023/08/23 08:35:37;;;;;;;9.43;2.65;;;;;;;-144.73;100.00;54288.66;4973975;28;20072;-74
2023/08/23 08:38:02;;;;;;;7.60;2.28;;;;;;;-144.73;100.00;54305.06;4973749;28;20034;-74
2023/08/23 08:40:28;;;;;;;6.10;1.98;;;;;;;-144.73;100.00;54342.03;4972782;28;20034;-74
2023/08/23 08:42:54;;;;;;;7.13;2.60;;;;;;;-144.73;100.00;54329.72;4975465;28;20031;-73
2023/08/23 08:45:20;;;;;;;5.65;2.80;;;;;;;-144.73;100.00;54387.19;4975570;28;20121;-75
2023/08/23 08:47:46;;;;;;;6.03;2.47;;;;;;;-144.73;100.00;54298.91;4975188;28;20030;-74
2023/08/23 08:50:12;;;;;;;8.50;2.15;;;;;;;-144.73;100.00;54296.88;4975416;28;20129;-75
2023/08/23 08:52:44;;;;;;;7.15;2.15;;;;;;;-144.73;100.00;54350.22;4975620;28;20105;-75
2023/08/23 08:55:10;;;;;;;5.68;1.80;;;;;;;-144.73;100.00;54309.19;4975367;28;20045;-75
2023/08/23 08:57:36;;;;;;;6.38;2.63;;;;;;;-144.73;100.00;54317.38;4976934;28;20022;-74
2023/08/23 09:00:06;;;;;;;9.07;1.88;;;;;;;-144.73;100.00;54333.81;4973233;28;20045;-74
2023/08/23 09:02:32;;;;;;;4.85;2.10;;;;;;;-144.73;100.00;54321.50;4975403;28;20027;-73
2023/08/23 09:04:58;;;;;;;12.05;2.28;;;;;;;-144.73;100.00;54354.34;4977819;28;20062;-75
2023/08/23 09:07:23;;;;;;;5.20;2.20;;;;;;;-144.73;100.00;54305.06;4974062;28;20026;-74
2023/08/23 09:09:50;;;;;;;6.18;1.85;;;;;;;-144.73;100.00;54337.91;4974787;28;20049;-75
2023/08/23 09:12:16;;;;;;;5.68;2.00;;;;;;;-144.73;100.00;54333.81;4976246;28;20169;-75
2023/08/23 09:14:47;;;;;;;6.53;1.88;;;;;;;-144.73;100.00;54276.34;4969348;28;20030;-73
2023/08/23 09:17:13;;;;;;;2.75;1.45;;;;;;;-144.73;100.00;54321.50;4975998;28;20022;-73
2023/08/23 09:19:41;;;;;;;5.38;1.77;;;;;;;-144.73;100.00;54305.06;4975743;28;20085;-73
2023/08/23 09:22:07;;;;;;;4.45;1.45;;;;;;;-144.73;100.00;54321.50;4975392;28;20027;-73
2023/08/23 09:24:33;;;;;;;13.93;2.00;;;;;;;-144.73;99.81;54325.59;4975193;28;20119;-74
2023/08/23 09:26:59;;;;;;;4.18;1.20;;;;;;;-144.73;99.47;54313.28;4976454;28;20599;-74
2023/08/23 09:29:25;;;;;;;4.43;1.65;;;;;;;-144.73;95.72;54331.75;4975236;28;20066;-74
2023/08/23 09:31:50;;;;;;;3.92;1.63;;;;;;;-144.73;95.64;54333.81;4976060;28;20146;-75
2023/08/23 09:34:16;;;;;;;3.00;1.67;;;;;;;-144.73;95.87;54346.13;4975406;28;20049;-75
2023/08/23 09:36:41;;;;;;;7.43;1.55;;;;;;;-144.73;93.86;54309.19;4975750;28;20094;-74
2023/08/23 09:39:11;;;;;;;8.23;2.33;;;;;;;-144.73;92.06;54321.50;4975144;28;20097;-74
2023/08/23 09:41:42;;;;;;;4.18;1.80;;;;;;;-144.73;95.09;54292.75;4978209;28;20018;-76
2023/08/23 09:44:08;;;;;;;8.77;1.83;;;;;;;-144.73;91.62;54317.38;4974898;28;20088;-74
2023/08/23 09:46:39;;;;;;;7.25;1.58;;;;;;;-144.73;87.73;54317.38;4976558;28;20026;-75
2023/08/23 09:49:06;;;;;;;4.90;1.50;;;;;;;-144.73;89.09;54309.19;4976433;28;20022;-75
2023/08/23 09:51:36;;;;;;;9.73;1.88;;;;;;;-144.73;92.15;54286.59;4975977;28;20105;-74
2023/08/23 09:54:23;;;;;;;3.75;1.23;;;;;;;-144.73;91.42;54296.88;4975656;28;20026;-75
2023/08/23 09:56:50;;;;;;;4.18;1.58;;;;;;;-144.73;89.43;54249.66;4983852;28;20065;-75
2023/08/23 09:59:17;;;;;;;7.85;1.50;;;;;;;-144.73;87.05;54276.34;4975598;28;20144;-75
2023/08/23 10:01:44;;;;;;;5.25;1.52;;;;;;;-144.73;84.79;54317.38;4971936;28;20145;-75
2023/08/23 10:04:09;;;;;;;4.60;1.35;;;;;;;-144.73;86.06;54317.38;4975838;28;20616;-74
2023/08/23 10:06:36;;;;;;;7.10;1.70;;;;;;;-144.73;88.46;54292.75;4976882;28;20022;-75
2023/08/23 10:09:03;;;;;;;5.00;1.40;;;;;;;-144.73;82.08;54292.75;4975274;28;20026;-75
2023/08/23 10:11:30;;;;;;;8.52;2.50;;;;;;;-144.73;86.61;54292.75;4976850;28;20169;-74
2023/08/23 10:13:58;;;;;;;2.95;1.60;;;;;;;-144.73;92.16;54315.34;4978859;28;20023;-75
2023/08/23 10:16:26;;;;;;;3.60;1.65;;;;;;;-144.73;91.42;54296.88;4975326;28;20249;-74
2023/08/23 10:18:52;;;;;;;4.10;1.45;;;;;;;-144.73;87.48;54309.19;4978045;28;20093;-75
2023/08/23 10:21:18;;;;;;;8.95;1.98;;;;;;;-144.73;84.47;54264.03;4975255;28;20097;-75
2023/08/23 10:23:44;;;;;;;6.05;1.83;;;;;;;-144.73;83.13;54243.50;4985282;28;20034;-76
2023/08/23 10:26:18;;;;;;;2.33;1.20;;;;;;;-144.73;84.80;54259.91;4959065;28;20101;-75
2023/08/23 10:28:48;;;;;;;4.78;2.17;;;;;;;-144.73;85.57;54264.03;4952783;28;20045;-76
2023/08/23 10:31:14;;;;;;;4.22;1.30;;;;;;;-144.73;81.35;54292.75;4954323;28;20047;-75
2023/08/23 10:33:40;;;;;;;3.92;1.70;;;;;;;-144.73;79.25;54276.34;4956511;28;20022;-75
2023/08/23 10:36:05;;;;;;;4.90;1.70;;;;;;;-144.73;82.61;54278.41;4968720;28;20041;-75
2023/08/23 10:38:31;;;;;;;6.40;1.92;;;;;;;-144.73;79.95;54309.19;4974595;28;20038;-76
2023/08/23 10:40:59;;;;;;;9.02;1.58;;;;;;;-144.73;84.45;54321.50;4978834;28;20038;-75
2023/08/23 10:43:25;;;;;;;3.75;1.40;;;;;;;-144.73;81.80;54255.81;4982324;28;20041;-74
2023/08/23 10:45:56;;;;;;;5.32;1.70;;;;;;;-144.73;82.34;54282.50;4977826;28;20050;-74
2023/08/23 10:48:23;;;;;;;;;;;;;;;-144.73;85.25;54329.72;4983929;28;20121;-74
2023/08/23 10:50:49;;;;;;;6.03;1.48;;;;;;;-144.73;82.56;54276.34;4981418;28;19914;-74
2023/08/23 10:53:18;;;;;;;4.97;1.02;;;;;;;-144.73;74.81;54276.34;4979208;28;20536;-74
2023/08/23 10:55:44;;;;;;;4.57;1.40;;;;;;;-144.73;71.18;54235.28;4981821;28;20034;-75
2023/08/23 10:58:12;;;;;;;3.50;1.20;;;;;;;-144.73;72.75;54294.81;4979546;28;20026;-75